| time (UTC) | temp F | wind direction | speed MPH | gust MPH | rain 1hr in | rain 24hr in | rain mn in | humidity % | barometer mb |
| 20260507103101 | 57 | 2 | 4.0 | 8.0 | 0.00 | 0.24 | 0.00 | 61 | 1022.5 |
| 20260507102034 | 57 | 321 | 4.0 | 9.0 | 0.00 | 0.24 | 0.00 | 64 | 1022.2 |
| 20260507101111 | 55 | 159 | 2.0 | 5.0 | 0.00 | 0.24 | 0.00 | 64 | 1022.2 |
| 20260507100038 | 54 | 329 | 2.0 | 11.0 | 0.00 | 0.24 | 0.00 | 68 | 1022.1 |
| 20260507095127 | 53 | 337 | 4.0 | 8.0 | 0.00 | 0.24 | 0.00 | 69 | 1022.1 |
| 20260507094127 | 54 | 348 | 2.0 | 8.0 | 0.00 | 0.24 | 0.00 | 69 | 1022.1 |
| 20260507093038 | 54 | 18 | 2.0 | 5.0 | 0.00 | 0.24 | 0.00 | 68 | 1022.0 |
| 20260507092103 | 53 | 322 | 3.0 | 8.0 | 0.00 | 0.24 | 0.00 | 72 | 1021.9 |
| 20260507091208 | 52 | 314 | 3.0 | 11.0 | 0.00 | 0.24 | 0.00 | 73 | 1022.0 |
| 20260507090239 | 51 | 333 | 2.0 | 6.0 | 0.00 | 0.24 | 0.00 | 76 | 1022.1 |
| 20260507083101 | 50 | 316 | 4.0 | 8.0 | 0.00 | 0.25 | 0.00 | 80 | 1021.9 |
| 20260507081037 | 50 | 337 | 2.0 | 9.0 | 0.00 | 0.25 | 0.00 | 83 | 1021.8 |
| 20260507080236 | 48 | 6 | 2.0 | 5.0 | 0.00 | 0.25 | 0.00 | 86 | 1021.8 |
| 20260507075125 | 48 | 21 | 3.0 | 8.0 | 0.00 | 0.27 | 0.00 | 86 | 1021.7 |
| 20260507073037 | 47 | 19 | 4.0 | 8.0 | 0.00 | 0.28 | 0.00 | 88 | 1021.6 |
| 20260507071101 | 47 | 64 | 1.0 | 5.0 | 0.00 | 0.29 | 0.00 | 91 | 1021.4 |
| 20260507065125 | 45 | 344 | 4.0 | 9.0 | 0.00 | 0.29 | 0.00 | 92 | 1021.2 |
| 20260507064039 | 45 | 322 | 3.0 | 9.0 | 0.00 | 0.29 | 0.00 | 93 | 1021.0 |
| 20260507063102 | 45 | 1 | 4.0 | 8.0 | 0.00 | 0.29 | 0.00 | 93 | 1021.0 |
| 20260507062036 | 45 | 312 | 3.0 | 6.0 | 0.00 | 0.29 | 0.00 | 94 | 1020.8 |
| 20260507061149 | 45 | 353 | 2.0 | 5.0 | 0.00 | 0.29 | 0.00 | 94 | 1020.8 |
| 20260507055214 | 45 | 351 | 3.0 | 6.0 | 0.00 | 0.29 | 0.00 | 95 | 1020.6 |
| 20260507053149 | 44 | 323 | 2.0 | 5.0 | 0.00 | 0.29 | 0.00 | 96 | 1020.3 |
| 20260507052038 | 44 | 321 | 1.0 | 5.0 | 0.00 | 0.29 | 0.00 | 96 | 1020.3 |
| 20260507051101 | 44 | 34 | 2.0 | 5.0 | 0.00 | 0.29 | 0.00 | 97 | 1020.3 |
| 20260507044037 | 44 | 306 | 0.0 | 2.0 | 0.00 | 0.29 | 0.00 | 98 | 1020.0 |
| 20260507043125 | 44 | 314 | 1.0 | 3.0 | 0.00 | 0.29 | 0.00 | 98 | 1019.9 |
| 20260507035212 | 44 | 303 | 1.0 | 3.0 | 0.00 | 0.29 | 0.00 | 98 | 1019.4 |
| 20260507034213 | 44 | 0.0 | 0.0 | 0.00 | 0.29 | 0.00 | 98 | 1019.3 | |
| 20260507032212 | 44 | 294 | 0.0 | 3.0 | 0.00 | 0.29 | 0.00 | 98 | 1019.3 |
| 20260507031149 | 44 | 0.0 | 0.0 | 0.00 | 0.29 | 0.00 | 98 | 1019.3 | |
| 20260507030037 | 44 | 0.0 | 0.0 | 0.00 | 0.29 | 0.00 | 98 | 1019.2 | |
| 20260507025100 | 44 | 282 | 1.0 | 5.0 | 0.00 | 0.29 | 0.00 | 98 | 1019.0 |
| 20260507023036 | 44 | 303 | 1.0 | 5.0 | 0.00 | 0.29 | 0.00 | 98 | 1018.9 |
| 20260507021037 | 44 | 315 | 1.0 | 5.0 | 0.00 | 0.29 | 0.00 | 98 | 1018.7 |
| 20260507020036 | 44 | 323 | 1.0 | 3.0 | 0.00 | 0.29 | 0.00 | 98 | 1018.6 |
| 20260507014126 | 44 | 356 | 2.0 | 6.0 | 0.00 | 0.29 | 0.00 | 98 | 1018.5 |
| 20260507013036 | 44 | 306 | 2.0 | 5.0 | 0.00 | 0.29 | 0.00 | 98 | 1018.5 |
| 20260507012023 | 44 | 338 | 2.0 | 6.0 | 0.00 | 0.29 | 0.00 | 98 | 1018.5 |
| 20260507005036 | 45 | 281 | 2.0 | 3.0 | 0.00 | 0.29 | 0.00 | 98 | 1018.2 |
| 20260507004125 | 45 | 310 | 2.0 | 8.0 | 0.00 | 0.29 | 0.00 | 99 | 1018.2 |
| 20260507003100 | 45 | 351 | 1.0 | 5.0 | 0.00 | 0.29 | 0.00 | 99 | 1018.2 |
| 20260507002101 | 45 | 314 | 3.0 | 6.0 | 0.00 | 0.29 | 0.00 | 99 | 1018.3 |
| 20260507001037 | 45 | 305 | 2.0 | 6.0 | 0.00 | 0.29 | 0.00 | 99 | 1018.2 |
| 20260507000149 | 45 | 348 | 2.0 | 5.0 | 0.00 | 0.29 | 0.00 | 99 | 1018.0 |
| 20260506235100 | 45 | 303 | 1.0 | 3.0 | 0.00 | 0.29 | 0.00 | 98 | 1018.1 |
| 20260506234036 | 45 | 307 | 2.0 | 5.0 | 0.00 | 0.29 | 0.00 | 98 | 1018.2 |
| 20260506233036 | 45 | 307 | 3.0 | 9.0 | 0.00 | 0.29 | 0.00 | 98 | 1018.2 |
| 20260506231037 | 45 | 346 | 2.0 | 6.0 | 0.00 | 0.29 | 0.00 | 99 | 1018.1 |
| 20260506230037 | 46 | 337 | 3.0 | 5.0 | 0.00 | 0.29 | 0.00 | 99 | 1018.1 |
| 20260506225150 | 46 | 335 | 1.0 | 5.0 | 0.00 | 0.29 | 0.00 | 99 | 1018.2 |
| 20260506224036 | 46 | 337 | 2.0 | 8.0 | 0.01 | 0.29 | 0.00 | 99 | 1018.0 |
| 20260506223037 | 46 | 320 | 2.0 | 5.0 | 0.01 | 0.29 | 0.00 | 99 | 1017.8 |
| 20260506222124 | 47 | 15 | 2.0 | 5.0 | 0.01 | 0.29 | 0.00 | 99 | 1017.7 |
| 20260506221125 | 47 | 295 | 1.0 | 3.0 | 0.01 | 0.29 | 0.00 | 99 | 1017.6 |
| 20260506220036 | 47 | 17 | 2.0 | 6.0 | 0.01 | 0.29 | 0.00 | 99 | 1017.5 |
| 20260506215148 | 47 | 293 | 1.0 | 3.0 | 0.02 | 0.29 | 0.29 | 99 | 1017.5 |
| 20260506214213 | 47 | 339 | 1.0 | 5.0 | 0.01 | 0.28 | 0.28 | 99 | 1017.4 |
| 20260506212100 | 47 | 317 | 1.0 | 5.0 | 0.02 | 0.28 | 0.28 | 99 | 1017.3 |
| 20260506211125 | 47 | 312 | 1.0 | 3.0 | 0.02 | 0.28 | 0.28 | 99 | 1017.2 |
| 20260506210036 | 47 | 322 | 1.0 | 3.0 | 0.02 | 0.28 | 0.28 | 99 | 1017.3 |
| 20260506205101 | 47 | 299 | 1.0 | 2.0 | 0.02 | 0.27 | 0.27 | 99 | 1017.2 |
| 20260506203149 | 47 | 292 | 1.0 | 5.0 | 0.01 | 0.26 | 0.26 | 99 | 1017.1 |
| 20260506202213 | 47 | 0.0 | 0.0 | 0.01 | 0.26 | 0.26 | 99 | 1017.1 | |
| 20260506201101 | 47 | 333 | 2.0 | 5.0 | 0.02 | 0.26 | 0.26 | 99 | 1017.1 |
| 20260506200149 | 47 | 283 | 0.0 | 2.0 | 0.03 | 0.26 | 0.26 | 99 | 1016.8 |
| 20260506195213 | 47 | 296 | 0.0 | 3.0 | 0.02 | 0.25 | 0.25 | 99 | 1016.9 |
| 20260506194100 | 47 | 300 | 1.0 | 5.0 | 0.03 | 0.25 | 0.25 | 99 | 1016.8 |
| 20260506193037 | 47 | 310 | 1.0 | 3.0 | 0.04 | 0.25 | 0.25 | 99 | 1016.7 |
| 20260506192101 | 47 | 298 | 1.0 | 3.0 | 0.05 | 0.25 | 0.25 | 99 | 1016.7 |
| 20260506190214 | 47 | 315 | 2.0 | 6.0 | 0.03 | 0.23 | 0.23 | 99 | 1016.6 |
| 20260506185037 | 48 | 316 | 2.0 | 5.0 | 0.03 | 0.23 | 0.23 | 99 | 1016.5 |
| 20260506184237 | 48 | 350 | 1.0 | 5.0 | 0.03 | 0.22 | 0.22 | 98 | 1016.4 |
| 20260506183149 | 48 | 38 | 2.0 | 6.0 | 0.02 | 0.21 | 0.21 | 98 | 1016.2 |
| 20260506182214 | 48 | 310 | 2.0 | 5.0 | 0.02 | 0.20 | 0.20 | 98 | 1016.1 |
| 20260506181037 | 48 | 337 | 2.0 | 5.0 | 0.03 | 0.20 | 0.20 | 98 | 1016.1 |
| 20260506180037 | 48 | 311 | 2.0 | 5.0 | 0.04 | 0.20 | 0.20 | 97 | 1015.9 |
| 20260506175037 | 48 | 330 | 4.0 | 9.0 | 0.04 | 0.20 | 0.20 | 97 | 1015.9 |
| 20260506174037 | 48 | 326 | 0.0 | 3.0 | 0.03 | 0.19 | 0.19 | 97 | 1015.7 |
| 20260506173036 | 48 | 333 | 2.0 | 5.0 | 0.04 | 0.19 | 0.19 | 96 | 1015.7 |
| 20260506172101 | 48 | 297 | 1.0 | 5.0 | 0.03 | 0.18 | 0.18 | 95 | 1015.7 |
| 20260506171125 | 48 | 323 | 2.0 | 6.0 | 0.02 | 0.17 | 0.17 | 94 | 1015.6 |
| 20260506165128 | 49 | 314 | 2.0 | 5.0 | 0.01 | 0.16 | 0.16 | 92 | 1015.5 |
| 20260506164213 | 48 | 324 | 2.0 | 5.0 | 0.02 | 0.16 | 0.16 | 92 | 1015.4 |
| 20260506163037 | 49 | 303 | 2.0 | 5.0 | 0.01 | 0.15 | 0.15 | 91 | 1015.4 |
| 20260506162125 | 49 | 287 | 1.0 | 3.0 | 0.02 | 0.15 | 0.15 | 89 | 1015.4 |
| 20260506161125 | 49 | 321 | 2.0 | 3.0 | 0.02 | 0.15 | 0.15 | 88 | 1015.5 |
| 20260506160037 | 49 | 302 | 2.0 | 6.0 | 0.03 | 0.15 | 0.15 | 88 | 1015.5 |
| 20260506155125 | 50 | 325 | 3.0 | 5.0 | 0.04 | 0.15 | 0.15 | 89 | 1015.5 |
| 20260506154125 | 50 | 307 | 2.0 | 3.0 | 0.03 | 0.14 | 0.14 | 90 | 1015.5 |
| 20260506153037 | 50 | 338 | 2.0 | 5.0 | 0.03 | 0.14 | 0.14 | 89 | 1015.6 |
| 20260506152237 | 50 | 307 | 2.0 | 3.0 | 0.02 | 0.13 | 0.13 | 89 | 1015.5 |
| 20260506151125 | 50 | 333 | 2.0 | 5.0 | 0.03 | 0.13 | 0.13 | 87 | 1015.5 |
| 20260506150101 | 50 | 335 | 4.0 | 8.0 | 0.03 | 0.12 | 0.12 | 87 | 1015.5 |
| 20260506145120 | 50 | 349 | 3.0 | 6.0 | 0.03 | 0.11 | 0.11 | 86 | 1015.5 |
| 20260506142649 | 50 | 310 | 2.0 | 5.0 | 0.05 | 0.11 | 0.11 | 84 | 1015.5 |
| 20260506141758 | 50 | 320 | 3.0 | 6.0 | 0.04 | 0.10 | 0.10 | 82 | 1015.5 |
| 20260506135536 | 51 | 5 | 2.0 | 3.0 | 0.02 | 0.08 | 0.08 | 83 | 1015.5 |
| 20260506134536 | 51 | 328 | 3.0 | 6.0 | 0.01 | 0.07 | 0.07 | 82 | 1015.5 |
| 20260506133536 | 51 | 306 | 3.0 | 5.0 | 0.02 | 0.07 | 0.07 | 81 | 1015.6 |
| 20260506132737 | 51 | 318 | 3.0 | 6.0 | 0.01 | 0.06 | 0.06 | 79 | 1015.5 |
| 20260506130536 | 52 | 341 | 4.0 | 9.0 | 0.01 | 0.06 | 0.06 | 77 | 1015.5 |
| 20260506125624 | 52 | 341 | 2.0 | 5.0 | 0.01 | 0.06 | 0.06 | 76 | 1015.4 |
| 20260506124625 | 52 | 310 | 4.0 | 9.0 | 0.01 | 0.06 | 0.06 | 74 | 1015.5 |
| 20260506123625 | 52 | 70 | 3.0 | 9.0 | 0.00 | 0.05 | 0.05 | 73 | 1015.3 |
| 20260506122536 | 53 | 334 | 2.0 | 5.0 | 0.00 | 0.05 | 0.05 | 74 | 1015.2 |
| 20260506121713 | 52 | 337 | 4.0 | 12.0 | 0.00 | 0.05 | 0.05 | 73 | 1015.2 |
| 20260506114737 | 52 | 333 | 3.0 | 6.0 | 0.00 | 0.05 | 0.05 | 76 | 1015.0 |
| 20260506113624 | 52 | 40 | 4.0 | 8.0 | 0.00 | 0.05 | 0.05 | 74 | 1015.0 |
| 20260506112624 | 52 | 304 | 3.0 | 9.0 | 0.00 | 0.05 | 0.05 | 76 | 1015.0 |
| 20260506111536 | 52 | 338 | 5.0 | 11.0 | 0.00 | 0.05 | 0.05 | 77 | 1015.1 |
| 20260506110649 | 52 | 313 | 3.0 | 6.0 | 0.00 | 0.05 | 0.05 | 78 | 1015.0 |
| 20260506105600 | 52 | 330 | 4.0 | 11.0 | 0.00 | 0.05 | 0.05 | 75 | 1015.1 |
| 20260506104614 | 52 | 325 | 3.0 | 6.0 | 0.00 | 0.05 | 0.05 | 76 | 1015.1 |
| 20260506103614 | 52 | 1 | 4.0 | 11.0 | 0.00 | 0.05 | 0.05 | 78 | 1015.1 |